sensor_id;sensor_type;location;lat;lon;timestamp;temperature;humidity
64549;DHT22;49838;51.798;10.954;2024-01-30T00:00:37;14.50;36.80
64549;DHT22;49838;51.798;10.954;2024-01-30T00:03:04;14.50;36.90
64549;DHT22;49838;51.798;10.954;2024-01-30T00:05:32;14.50;36.90
64549;DHT22;49838;51.798;10.954;2024-01-30T00:08:00;14.50;37.60
64549;DHT22;49838;51.798;10.954;2024-01-30T00:10:27;14.40;37.40
64549;DHT22;49838;51.798;10.954;2024-01-30T00:12:55;14.50;38.20
64549;DHT22;49838;51.798;10.954;2024-01-30T00:15:22;14.40;38.80
64549;DHT22;49838;51.798;10.954;2024-01-30T00:17:49;14.30;37.90
64549;DHT22;49838;51.798;10.954;2024-01-30T00:20:18;14.20;38.10
64549;DHT22;49838;51.798;10.954;2024-01-30T00:22:45;14.30;38.50
64549;DHT22;49838;51.798;10.954;2024-01-30T00:25:14;14.30;39.60
64549;DHT22;49838;51.798;10.954;2024-01-30T00:27:41;14.30;39.30
64549;DHT22;49838;51.798;10.954;2024-01-30T00:30:09;14.20;38.60
64549;DHT22;49838;51.798;10.954;2024-01-30T00:32:37;14.10;38.50
64549;DHT22;49838;51.798;10.954;2024-01-30T00:35:04;14.10;38.60
64549;DHT22;49838;51.798;10.954;2024-01-30T00:37:32;14.10;38.20
64549;DHT22;49838;51.798;10.954;2024-01-30T00:39:59;14.10;38.20
64549;DHT22;49838;51.798;10.954;2024-01-30T00:42:28;14.10;38.00
64549;DHT22;49838;51.798;10.954;2024-01-30T00:44:55;14.10;38.50
64549;DHT22;49838;51.798;10.954;2024-01-30T00:47:22;14.10;38.10
64549;DHT22;49838;51.798;10.954;2024-01-30T00:49:49;14.10;38.50
64549;DHT22;49838;51.798;10.954;2024-01-30T00:52:17;14.10;38.10
64549;DHT22;49838;51.798;10.954;2024-01-30T00:54:44;14.10;37.70
64549;DHT22;49838;51.798;10.954;2024-01-30T00:57:11;14.10;37.50
64549;DHT22;49838;51.798;10.954;2024-01-30T00:59:40;14.10;37.80
64549;DHT22;49838;51.798;10.954;2024-01-30T01:02:07;14.10;37.20
64549;DHT22;49838;51.798;10.954;2024-01-30T01:04:34;14.00;37.10
64549;DHT22;49838;51.798;10.954;2024-01-30T01:07:02;14.00;37.00
64549;DHT22;49838;51.798;10.954;2024-01-30T01:09:29;14.00;37.00
64549;DHT22;49838;51.798;10.954;2024-01-30T01:11:56;14.00;37.30
64549;DHT22;49838;51.798;10.954;2024-01-30T01:14:24;14.00;37.40
64549;DHT22;49838;51.798;10.954;2024-01-30T01:16:52;14.00;37.40
64549;DHT22;49838;51.798;10.954;2024-01-30T01:19:20;13.90;37.40
64549;DHT22;49838;51.798;10.954;2024-01-30T01:21:47;13.90;37.40
64549;DHT22;49838;51.798;10.954;2024-01-30T01:24:14;13.80;37.40
64549;DHT22;49838;51.798;10.954;2024-01-30T01:26:41;13.80;37.20
64549;DHT22;49838;51.798;10.954;2024-01-30T01:29:09;13.80;37.20
64549;DHT22;49838;51.798;10.954;2024-01-30T01:31:37;13.70;37.00
64549;DHT22;49838;51.798;10.954;2024-01-30T01:34:10;13.70;36.90
64549;DHT22;49838;51.798;10.954;2024-01-30T01:36:38;13.70;36.80
64549;DHT22;49838;51.798;10.954;2024-01-30T01:39:06;13.70;36.70
64549;DHT22;49838;51.798;10.954;2024-01-30T01:41:34;13.70;36.60
64549;DHT22;49838;51.798;10.954;2024-01-30T01:44:01;13.70;36.60
64549;DHT22;49838;51.798;10.954;2024-01-30T01:46:30;13.70;36.60
64549;DHT22;49838;51.798;10.954;2024-01-30T01:48:59;13.70;36.50
64549;DHT22;49838;51.798;10.954;2024-01-30T01:51:29;13.60;36.50
64549;DHT22;49838;51.798;10.954;2024-01-30T01:53:58;13.70;36.70
64549;DHT22;49838;51.798;10.954;2024-01-30T01:56:28;13.70;36.70
64549;DHT22;49838;51.798;10.954;2024-01-30T01:58:56;13.70;37.00
64549;DHT22;49838;51.798;10.954;2024-01-30T02:01:27;13.70;37.60
64549;DHT22;49838;51.798;10.954;2024-01-30T02:03:55;13.80;37.70
64549;DHT22;49838;51.798;10.954;2024-01-30T02:06:22;13.80;37.80
64549;DHT22;49838;51.798;10.954;2024-01-30T02:08:51;13.80;37.90
64549;DHT22;49838;51.798;10.954;2024-01-30T02:11:18;13.80;37.90
64549;DHT22;49838;51.798;10.954;2024-01-30T02:13:47;13.90;38.00
64549;DHT22;49838;51.798;10.954;2024-01-30T02:16:14;14.00;38.80
64549;DHT22;49838;51.798;10.954;2024-01-30T02:18:43;14.00;38.90
64549;DHT22;49838;51.798;10.954;2024-01-30T02:21:14;14.10;38.80
64549;DHT22;49838;51.798;10.954;2024-01-30T02:23:43;14.10;38.60
64549;DHT22;49838;51.798;10.954;2024-01-30T02:26:11;14.10;38.50
64549;DHT22;49838;51.798;10.954;2024-01-30T02:28:38;14.20;38.60
64549;DHT22;49838;51.798;10.954;2024-01-30T02:31:06;14.20;38.90
64549;DHT22;49838;51.798;10.954;2024-01-30T02:33:33;14.20;38.80
64549;DHT22;49838;51.798;10.954;2024-01-30T02:36:00;14.10;38.50
64549;DHT22;49838;51.798;10.954;2024-01-30T02:38:29;14.10;38.50
64549;DHT22;49838;51.798;10.954;2024-01-30T02:40:59;14.10;38.30
64549;DHT22;49838;51.798;10.954;2024-01-30T02:43:26;14.00;38.20
64549;DHT22;49838;51.798;10.954;2024-01-30T02:45:53;14.00;38.10
64549;DHT22;49838;51.798;10.954;2024-01-30T02:48:21;14.00;38.00
64549;DHT22;49838;51.798;10.954;2024-01-30T02:50:48;14.00;38.00
64549;DHT22;49838;51.798;10.954;2024-01-30T02:53:15;13.90;37.80
64549;DHT22;49838;51.798;10.954;2024-01-30T02:55:44;13.90;37.90
64549;DHT22;49838;51.798;10.954;2024-01-30T02:58:11;13.90;37.90
64549;DHT22;49838;51.798;10.954;2024-01-30T03:00:38;13.90;38.10
64549;DHT22;49838;51.798;10.954;2024-01-30T03:03:05;14.00;38.10
64549;DHT22;49838;51.798;10.954;2024-01-30T03:05:32;13.90;37.90
64549;DHT22;49838;51.798;10.954;2024-01-30T03:08:00;13.90;37.70
64549;DHT22;49838;51.798;10.954;2024-01-30T03:10:27;14.00;37.90
64549;DHT22;49838;51.798;10.954;2024-01-30T03:12:56;14.00;37.80
64549;DHT22;49838;51.798;10.954;2024-01-30T03:15:23;14.00;38.00
64549;DHT22;49838;51.798;10.954;2024-01-30T03:17:50;14.00;37.90
64549;DHT22;49838;51.798;10.954;2024-01-30T03:20:17;14.00;37.90
64549;DHT22;49838;51.798;10.954;2024-01-30T03:22:45;13.90;37.80
64549;DHT22;49838;51.798;10.954;2024-01-30T03:25:12;13.90;37.70
64549;DHT22;49838;51.798;10.954;2024-01-30T03:27:39;13.90;37.60
64549;DHT22;49838;51.798;10.954;2024-01-30T03:30:08;13.90;37.60
64549;DHT22;49838;51.798;10.954;2024-01-30T03:32:36;13.90;37.50
64549;DHT22;49838;51.798;10.954;2024-01-30T03:35:04;13.90;37.40
64549;DHT22;49838;51.798;10.954;2024-01-30T03:37:32;13.90;37.40
64549;DHT22;49838;51.798;10.954;2024-01-30T03:39:59;13.90;37.40
64549;DHT22;49838;51.798;10.954;2024-01-30T03:42:26;13.90;37.40
64549;DHT22;49838;51.798;10.954;2024-01-30T03:44:53;13.80;37.30
64549;DHT22;49838;51.798;10.954;2024-01-30T03:47:23;13.80;37.40
64549;DHT22;49838;51.798;10.954;2024-01-30T03:49:50;13.80;37.40
64549;DHT22;49838;51.798;10.954;2024-01-30T03:52:18;13.80;37.40
64549;DHT22;49838;51.798;10.954;2024-01-30T03:54:45;13.70;37.30
64549;DHT22;49838;51.798;10.954;2024-01-30T03:57:12;13.70;37.20
64549;DHT22;49838;51.798;10.954;2024-01-30T03:59:41;13.70;38.00
64549;DHT22;49838;51.798;10.954;2024-01-30T04:02:09;13.70;37.30
64549;DHT22;49838;51.798;10.954;2024-01-30T04:04:38;13.70;37.30
64549;DHT22;49838;51.798;10.954;2024-01-30T04:07:05;13.60;37.20
64549;DHT22;49838;51.798;10.954;2024-01-30T04:09:32;13.60;37.10
64549;DHT22;49838;51.798;10.954;2024-01-30T04:12:00;13.60;37.10
64549;DHT22;49838;51.798;10.954;2024-01-30T04:14:28;13.60;37.00
64549;DHT22;49838;51.798;10.954;2024-01-30T04:16:56;13.60;37.10
64549;DHT22;49838;51.798;10.954;2024-01-30T04:19:23;13.60;37.00
64549;DHT22;49838;51.798;10.954;2024-01-30T04:21:51;13.60;37.00
64549;DHT22;49838;51.798;10.954;2024-01-30T04:24:19;13.60;36.90
64549;DHT22;49838;51.798;10.954;2024-01-30T04:26:46;13.60;36.90
64549;DHT22;49838;51.798;10.954;2024-01-30T04:29:13;13.60;36.90
64549;DHT22;49838;51.798;10.954;2024-01-30T04:31:40;13.60;36.90
64549;DHT22;49838;51.798;10.954;2024-01-30T04:34:07;13.60;36.90
64549;DHT22;49838;51.798;10.954;2024-01-30T04:36:35;13.60;36.80
64549;DHT22;49838;51.798;10.954;2024-01-30T04:39:03;13.60;37.00
64549;DHT22;49838;51.798;10.954;2024-01-30T04:41:31;13.50;36.90
64549;DHT22;49838;51.798;10.954;2024-01-30T04:43:58;13.50;36.90
64549;DHT22;49838;51.798;10.954;2024-01-30T04:46:25;13.50;36.80
64549;DHT22;49838;51.798;10.954;2024-01-30T04:48:52;13.50;36.80
64549;DHT22;49838;51.798;10.954;2024-01-30T04:51:20;13.40;36.80
64549;DHT22;49838;51.798;10.954;2024-01-30T04:53:47;13.50;36.90
64549;DHT22;49838;51.798;10.954;2024-01-30T04:56:15;13.40;36.80
64549;DHT22;49838;51.798;10.954;2024-01-30T04:58:43;13.40;36.80
64549;DHT22;49838;51.798;10.954;2024-01-30T05:01:14;13.40;36.70
64549;DHT22;49838;51.798;10.954;2024-01-30T05:03:42;13.30;36.60
64549;DHT22;49838;51.798;10.954;2024-01-30T05:06:09;13.30;36.60
64549;DHT22;49838;51.798;10.954;2024-01-30T05:08:36;13.30;36.60
64549;DHT22;49838;51.798;10.954;2024-01-30T05:11:04;13.30;36.60
64549;DHT22;49838;51.798;10.954;2024-01-30T05:13:33;13.30;36.60
64549;DHT22;49838;51.798;10.954;2024-01-30T05:16:01;13.30;36.50
64549;DHT22;49838;51.798;10.954;2024-01-30T05:18:29;13.30;36.50
64549;DHT22;49838;51.798;10.954;2024-01-30T05:20:56;13.30;36.50
64549;DHT22;49838;51.798;10.954;2024-01-30T05:23:24;13.20;36.40
64549;DHT22;49838;51.798;10.954;2024-01-30T05:25:51;13.20;36.40
64549;DHT22;49838;51.798;10.954;2024-01-30T05:28:18;13.20;36.40
64549;DHT22;49838;51.798;10.954;2024-01-30T05:30:47;13.20;36.40
64549;DHT22;49838;51.798;10.954;2024-01-30T05:33:14;13.30;36.80
64549;DHT22;49838;51.798;10.954;2024-01-30T05:35:42;13.20;36.60
64549;DHT22;49838;51.798;10.954;2024-01-30T05:38:09;13.20;36.60
64549;DHT22;49838;51.798;10.954;2024-01-30T05:40:36;13.20;36.50
64549;DHT22;49838;51.798;10.954;2024-01-30T05:43:03;13.10;36.40
64549;DHT22;49838;51.798;10.954;2024-01-30T05:45:31;13.10;36.40
64549;DHT22;49838;51.798;10.954;2024-01-30T05:47:59;13.20;36.70
64549;DHT22;49838;51.798;10.954;2024-01-30T05:50:27;13.20;36.80
64549;DHT22;49838;51.798;10.954;2024-01-30T05:52:54;13.20;37.00
64549;DHT22;49838;51.798;10.954;2024-01-30T05:55:21;13.20;37.20
64549;DHT22;49838;51.798;10.954;2024-01-30T05:57:48;13.20;37.20
64549;DHT22;49838;51.798;10.954;2024-01-30T06:00:16;13.10;37.30
64549;DHT22;49838;51.798;10.954;2024-01-30T06:02:44;13.20;37.40
64549;DHT22;49838;51.798;10.954;2024-01-30T06:05:13;13.20;37.30
64549;DHT22;49838;51.798;10.954;2024-01-30T06:07:40;13.20;37.20
64549;DHT22;49838;51.798;10.954;2024-01-30T06:10:08;13.10;37.00
64549;DHT22;49838;51.798;10.954;2024-01-30T06:12:35;13.20;37.10
64549;DHT22;49838;51.798;10.954;2024-01-30T06:15:03;13.20;37.00
64549;DHT22;49838;51.798;10.954;2024-01-30T06:17:31;13.20;37.00
64549;DHT22;49838;51.798;10.954;2024-01-30T06:19:58;13.20;37.10
64549;DHT22;49838;51.798;10.954;2024-01-30T06:22:27;13.20;37.10
64549;DHT22;49838;51.798;10.954;2024-01-30T06:24:54;13.20;37.00
64549;DHT22;49838;51.798;10.954;2024-01-30T06:27:23;13.20;37.10
64549;DHT22;49838;51.798;10.954;2024-01-30T06:29:50;13.20;37.10
64549;DHT22;49838;51.798;10.954;2024-01-30T06:32:17;13.20;37.30
64549;DHT22;49838;51.798;10.954;2024-01-30T06:34:44;13.20;37.30
64549;DHT22;49838;51.798;10.954;2024-01-30T06:37:12;13.20;37.50
64549;DHT22;49838;51.798;10.954;2024-01-30T06:39:40;13.20;37.60
64549;DHT22;49838;51.798;10.954;2024-01-30T06:42:08;13.10;37.90
64549;DHT22;49838;51.798;10.954;2024-01-30T06:44:35;13.10;38.10
64549;DHT22;49838;51.798;10.954;2024-01-30T06:47:03;13.10;38.10
64549;DHT22;49838;51.798;10.954;2024-01-30T06:49:30;13.10;38.50
64549;DHT22;49838;51.798;10.954;2024-01-30T06:51:57;13.10;38.40
64549;DHT22;49838;51.798;10.954;2024-01-30T06:54:25;13.10;38.50
64549;DHT22;49838;51.798;10.954;2024-01-30T06:56:53;13.10;38.30
64549;DHT22;49838;51.798;10.954;2024-01-30T06:59:20;13.10;38.50
64549;DHT22;49838;51.798;10.954;2024-01-30T07:01:48;13.20;38.40
64549;DHT22;49838;51.798;10.954;2024-01-30T07:04:15;13.10;38.30
64549;DHT22;49838;51.798;10.954;2024-01-30T07:06:42;13.10;38.60
64549;DHT22;49838;51.798;10.954;2024-01-30T07:09:09;13.20;38.50
64549;DHT22;49838;51.798;10.954;2024-01-30T07:11:37;13.20;38.80
64549;DHT22;49838;51.798;10.954;2024-01-30T07:14:07;13.20;39.20
64549;DHT22;49838;51.798;10.954;2024-01-30T07:16:36;13.30;38.80
64549;DHT22;49838;51.798;10.954;2024-01-30T07:19:03;13.30;38.80
64549;DHT22;49838;51.798;10.954;2024-01-30T07:21:30;13.30;38.60
64549;DHT22;49838;51.798;10.954;2024-01-30T07:23:58;13.30;38.50
64549;DHT22;49838;51.798;10.954;2024-01-30T07:26:25;13.30;38.50
64549;DHT22;49838;51.798;10.954;2024-01-30T07:28:52;13.30;38.40
64549;DHT22;49838;51.798;10.954;2024-01-30T07:31:21;13.40;38.60
64549;DHT22;49838;51.798;10.954;2024-01-30T07:33:49;13.50;38.50
64549;DHT22;49838;51.798;10.954;2024-01-30T07:36:16;13.40;38.20
64549;DHT22;49838;51.798;10.954;2024-01-30T07:38:43;13.50;38.30
64549;DHT22;49838;51.798;10.954;2024-01-30T07:41:10;13.60;38.30
64549;DHT22;49838;51.798;10.954;2024-01-30T07:43:38;13.70;38.50
64549;DHT22;49838;51.798;10.954;2024-01-30T07:46:05;13.80;38.40
64549;DHT22;49838;51.798;10.954;2024-01-30T07:48:34;13.90;38.70
64549;DHT22;49838;51.798;10.954;2024-01-30T07:51:01;13.90;38.60
64549;DHT22;49838;51.798;10.954;2024-01-30T07:53:29;14.10;38.60
64549;DHT22;49838;51.798;10.954;2024-01-30T07:55:57;14.20;38.40
64549;DHT22;49838;51.798;10.954;2024-01-30T07:58:24;14.30;38.60
64549;DHT22;49838;51.798;10.954;2024-01-30T08:00:53;14.40;38.50
64549;DHT22;49838;51.798;10.954;2024-01-30T08:03:22;14.40;38.50
64549;DHT22;49838;51.798;10.954;2024-01-30T08:05:51;14.60;38.60
64549;DHT22;49838;51.798;10.954;2024-01-30T08:08:18;14.70;38.50
64549;DHT22;49838;51.798;10.954;2024-01-30T08:10:45;14.70;38.40
64549;DHT22;49838;51.798;10.954;2024-01-30T08:13:14;14.80;38.50
64549;DHT22;49838;51.798;10.954;2024-01-30T08:15:41;15.00;38.50
64549;DHT22;49838;51.798;10.954;2024-01-30T08:18:08;15.10;38.50
64549;DHT22;49838;51.798;10.954;2024-01-30T08:20:35;15.20;38.50
64549;DHT22;49838;51.798;10.954;2024-01-30T08:23:04;15.30;38.50
64549;DHT22;49838;51.798;10.954;2024-01-30T08:25:31;15.30;38.80
64549;DHT22;49838;51.798;10.954;2024-01-30T08:27:59;15.30;38.80
64549;DHT22;49838;51.798;10.954;2024-01-30T08:30:26;15.30;39.00
64549;DHT22;49838;51.798;10.954;2024-01-30T08:32:53;15.30;39.10
64549;DHT22;49838;51.798;10.954;2024-01-30T08:35:20;15.40;39.20
64549;DHT22;49838;51.798;10.954;2024-01-30T08:37:48;15.40;39.20
64549;DHT22;49838;51.798;10.954;2024-01-30T08:40:16;15.50;39.20
64549;DHT22;49838;51.798;10.954;2024-01-30T08:42:44;15.50;39.40
64549;DHT22;49838;51.798;10.954;2024-01-30T08:45:11;15.60;39.70
64549;DHT22;49838;51.798;10.954;2024-01-30T08:47:40;15.70;39.70
64549;DHT22;49838;51.798;10.954;2024-01-30T08:50:07;15.80;39.80
64549;DHT22;49838;51.798;10.954;2024-01-30T08:52:34;15.90;40.00
64549;DHT22;49838;51.798;10.954;2024-01-30T08:55:02;16.10;39.90
64549;DHT22;49838;51.798;10.954;2024-01-30T08:57:31;16.30;39.70
64549;DHT22;49838;51.798;10.954;2024-01-30T08:59:59;16.50;39.60
64549;DHT22;49838;51.798;10.954;2024-01-30T09:02:28;16.70;39.50
64549;DHT22;49838;51.798;10.954;2024-01-30T09:04:55;16.90;39.50
64549;DHT22;49838;51.798;10.954;2024-01-30T09:07:22;17.10;39.50
64549;DHT22;49838;51.798;10.954;2024-01-30T09:09:50;17.20;39.60
64549;DHT22;49838;51.798;10.954;2024-01-30T09:12:17;17.40;39.70
64549;DHT22;49838;51.798;10.954;2024-01-30T09:14:45;17.60;39.80
64549;DHT22;49838;51.798;10.954;2024-01-30T09:17:13;17.80;39.90
64549;DHT22;49838;51.798;10.954;2024-01-30T09:19:40;18.00;40.00
64549;DHT22;49838;51.798;10.954;2024-01-30T09:22:07;18.20;39.90
64549;DHT22;49838;51.798;10.954;2024-01-30T09:24:35;18.30;39.80
64549;DHT22;49838;51.798;10.954;2024-01-30T09:27:02;18.40;39.70
64549;DHT22;49838;51.798;10.954;2024-01-30T09:29:30;18.50;39.70
64549;DHT22;49838;51.798;10.954;2024-01-30T09:31:59;18.60;39.50
64549;DHT22;49838;51.798;10.954;2024-01-30T09:34:26;18.70;39.60
64549;DHT22;49838;51.798;10.954;2024-01-30T09:36:54;18.80;39.30
64549;DHT22;49838;51.798;10.954;2024-01-30T09:39:21;18.90;39.20
64549;DHT22;49838;51.798;10.954;2024-01-30T09:41:49;18.90;39.00
64549;DHT22;49838;51.798;10.954;2024-01-30T09:44:22;18.90;38.90
64549;DHT22;49838;51.798;10.954;2024-01-30T09:46:51;18.90;38.90
64549;DHT22;49838;51.798;10.954;2024-01-30T09:49:20;19.00;38.90
64549;DHT22;49838;51.798;10.954;2024-01-30T09:51:50;19.10;39.10
64549;DHT22;49838;51.798;10.954;2024-01-30T09:54:18;19.30;39.10
64549;DHT22;49838;51.798;10.954;2024-01-30T09:56:47;19.40;38.90
64549;DHT22;49838;51.798;10.954;2024-01-30T09:59:15;19.50;38.80
64549;DHT22;49838;51.798;10.954;2024-01-30T10:01:42;19.60;39.00
64549;DHT22;49838;51.798;10.954;2024-01-30T10:04:11;19.80;38.90
64549;DHT22;49838;51.798;10.954;2024-01-30T10:06:39;19.90;38.70
64549;DHT22;49838;51.798;10.954;2024-01-30T10:09:07;20.00;38.60
64549;DHT22;49838;51.798;10.954;2024-01-30T10:11:35;20.00;38.50
64549;DHT22;49838;51.798;10.954;2024-01-30T10:14:03;20.10;38.60
64549;DHT22;49838;51.798;10.954;2024-01-30T10:16:30;20.20;38.70
64549;DHT22;49838;51.798;10.954;2024-01-30T10:18:58;20.30;38.80
64549;DHT22;49838;51.798;10.954;2024-01-30T10:21:25;20.30;38.50
64549;DHT22;49838;51.798;10.954;2024-01-30T10:23:54;20.30;38.20
64549;DHT22;49838;51.798;10.954;2024-01-30T10:26:21;20.30;38.30
64549;DHT22;49838;51.798;10.954;2024-01-30T10:28:48;20.30;38.00
64549;DHT22;49838;51.798;10.954;2024-01-30T10:31:16;20.20;37.90
64549;DHT22;49838;51.798;10.954;2024-01-30T10:33:44;20.30;38.20
64549;DHT22;49838;51.798;10.954;2024-01-30T10:36:13;20.30;38.30
64549;DHT22;49838;51.798;10.954;2024-01-30T10:38:42;20.50;38.30
64549;DHT22;49838;51.798;10.954;2024-01-30T10:41:11;20.60;38.60
64549;DHT22;49838;51.798;10.954;2024-01-30T10:43:40;20.70;38.00
64549;DHT22;49838;51.798;10.954;2024-01-30T10:46:10;20.80;38.50
64549;DHT22;49838;51.798;10.954;2024-01-30T10:48:42;21.00;38.60
64549;DHT22;49838;51.798;10.954;2024-01-30T10:51:10;21.10;38.30
64549;DHT22;49838;51.798;10.954;2024-01-30T10:53:38;21.20;38.30
64549;DHT22;49838;51.798;10.954;2024-01-30T10:56:06;21.40;38.60
64549;DHT22;49838;51.798;10.954;2024-01-30T10:58:36;21.50;38.30
64549;DHT22;49838;51.798;10.954;2024-01-30T11:01:04;21.60;38.00
64549;DHT22;49838;51.798;10.954;2024-01-30T11:03:33;21.60;37.90
64549;DHT22;49838;51.798;10.954;2024-01-30T11:06:02;21.60;37.30
64549;DHT22;49838;51.798;10.954;2024-01-30T11:08:31;21.60;37.50
64549;DHT22;49838;51.798;10.954;2024-01-30T11:10:59;21.60;37.20
64549;DHT22;49838;51.798;10.954;2024-01-30T11:13:26;21.50;37.00
64549;DHT22;49838;51.798;10.954;2024-01-30T11:15:56;21.50;36.80
64549;DHT22;49838;51.798;10.954;2024-01-30T11:18:28;21.40;36.80
64549;DHT22;49838;51.798;10.954;2024-01-30T11:20:56;21.40;36.50
64549;DHT22;49838;51.798;10.954;2024-01-30T11:23:25;21.30;36.60
64549;DHT22;49838;51.798;10.954;2024-01-30T11:25:53;21.10;36.30
64549;DHT22;49838;51.798;10.954;2024-01-30T11:28:21;21.00;36.40
64549;DHT22;49838;51.798;10.954;2024-01-30T11:30:49;20.90;36.30
64549;DHT22;49838;51.798;10.954;2024-01-30T11:33:27;20.90;36.50
64549;DHT22;49838;51.798;10.954;2024-01-30T11:35:56;20.90;36.50
64549;DHT22;49838;51.798;10.954;2024-01-30T11:38:25;20.90;36.40
64549;DHT22;49838;51.798;10.954;2024-01-30T11:40:53;20.80;36.30
64549;DHT22;49838;51.798;10.954;2024-01-30T11:43:22;20.80;36.30
64549;DHT22;49838;51.798;10.954;2024-01-30T11:45:50;20.70;36.30
64549;DHT22;49838;51.798;10.954;2024-01-30T11:48:17;20.60;36.20
64549;DHT22;49838;51.798;10.954;2024-01-30T11:50:46;20.60;36.30
64549;DHT22;49838;51.798;10.954;2024-01-30T11:53:14;20.50;36.40
64549;DHT22;49838;51.798;10.954;2024-01-30T11:55:41;20.50;36.40
64549;DHT22;49838;51.798;10.954;2024-01-30T11:58:09;20.40;36.50
64549;DHT22;49838;51.798;10.954;2024-01-30T12:00:36;20.40;36.50
64549;DHT22;49838;51.798;10.954;2024-01-30T12:03:03;20.40;36.50
64549;DHT22;49838;51.798;10.954;2024-01-30T12:05:32;20.30;36.40
64549;DHT22;49838;51.798;10.954;2024-01-30T12:08:01;20.20;36.50
64549;DHT22;49838;51.798;10.954;2024-01-30T12:10:29;20.10;36.50
64549;DHT22;49838;51.798;10.954;2024-01-30T12:12:56;20.00;36.50
64549;DHT22;49838;51.798;10.954;2024-01-30T12:15:23;19.90;36.50
64549;DHT22;49838;51.798;10.954;2024-01-30T12:17:51;19.80;36.70
64549;DHT22;49838;51.798;10.954;2024-01-30T12:20:19;19.80;37.40
64549;DHT22;49838;51.798;10.954;2024-01-30T12:22:47;19.70;36.80
64549;DHT22;49838;51.798;10.954;2024-01-30T12:25:17;19.60;36.80
64549;DHT22;49838;51.798;10.954;2024-01-30T12:27:45;19.60;37.00
64549;DHT22;49838;51.798;10.954;2024-01-30T12:30:16;19.50;37.00
64549;DHT22;49838;51.798;10.954;2024-01-30T12:32:44;19.40;37.10
64549;DHT22;49838;51.798;10.954;2024-01-30T12:35:14;19.30;37.10
64549;DHT22;49838;51.798;10.954;2024-01-30T12:37:42;19.20;37.20
64549;DHT22;49838;51.798;10.954;2024-01-30T12:40:11;19.20;37.30
64549;DHT22;49838;51.798;10.954;2024-01-30T12:42:41;19.20;37.30
64549;DHT22;49838;51.798;10.954;2024-01-30T12:45:11;19.20;37.40
64549;DHT22;49838;51.798;10.954;2024-01-30T12:47:41;19.20;37.40
64549;DHT22;49838;51.798;10.954;2024-01-30T12:50:09;19.20;37.40
64549;DHT22;49838;51.798;10.954;2024-01-30T12:52:38;19.10;37.50
64549;DHT22;49838;51.798;10.954;2024-01-30T12:55:05;19.10;37.50
64549;DHT22;49838;51.798;10.954;2024-01-30T12:57:33;19.00;37.50
64549;DHT22;49838;51.798;10.954;2024-01-30T13:00:01;19.00;37.60
64549;DHT22;49838;51.798;10.954;2024-01-30T13:02:29;18.90;37.60
64549;DHT22;49838;51.798;10.954;2024-01-30T13:05:00;18.80;37.60
64549;DHT22;49838;51.798;10.954;2024-01-30T13:07:28;18.80;37.70
64549;DHT22;49838;51.798;10.954;2024-01-30T13:09:55;18.80;37.70
64549;DHT22;49838;51.798;10.954;2024-01-30T13:12:28;18.60;37.80
64549;DHT22;49838;51.798;10.954;2024-01-30T13:14:55;18.60;38.00
64549;DHT22;49838;51.798;10.954;2024-01-30T13:17:24;18.50;37.90
64549;DHT22;49838;51.798;10.954;2024-01-30T13:19:51;18.60;37.90
64549;DHT22;49838;51.798;10.954;2024-01-30T13:22:19;18.50;38.00
64549;DHT22;49838;51.798;10.954;2024-01-30T13:24:47;18.40;38.00
64549;DHT22;49838;51.798;10.954;2024-01-30T13:27:14;18.30;38.10
64549;DHT22;49838;51.798;10.954;2024-01-30T13:29:42;18.30;38.10
64549;DHT22;49838;51.798;10.954;2024-01-30T13:32:09;18.30;38.00
64549;DHT22;49838;51.798;10.954;2024-01-30T13:34:38;18.20;38.00
64549;DHT22;49838;51.798;10.954;2024-01-30T13:37:06;18.20;38.00
64549;DHT22;49838;51.798;10.954;2024-01-30T13:39:33;18.20;38.00
64549;DHT22;49838;51.798;10.954;2024-01-30T13:42:00;18.10;37.90
64549;DHT22;49838;51.798;10.954;2024-01-30T13:44:28;18.20;37.90
64549;DHT22;49838;51.798;10.954;2024-01-30T13:46:56;18.10;37.90
64549;DHT22;49838;51.798;10.954;2024-01-30T13:49:23;18.10;38.00
64549;DHT22;49838;51.798;10.954;2024-01-30T13:51:51;18.10;38.00
64549;DHT22;49838;51.798;10.954;2024-01-30T13:54:19;18.10;38.20
64549;DHT22;49838;51.798;10.954;2024-01-30T13:56:46;18.00;38.20
64549;DHT22;49838;51.798;10.954;2024-01-30T13:59:13;17.90;38.40
64549;DHT22;49838;51.798;10.954;2024-01-30T14:01:40;17.80;38.40
64549;DHT22;49838;51.798;10.954;2024-01-30T14:04:08;17.80;38.50
64549;DHT22;49838;51.798;10.954;2024-01-30T14:06:36;17.80;38.60
64549;DHT22;49838;51.798;10.954;2024-01-30T14:09:05;17.80;38.60
64549;DHT22;49838;51.798;10.954;2024-01-30T14:11:33;17.80;39.20
64549;DHT22;49838;51.798;10.954;2024-01-30T14:14:00;17.80;38.50
64549;DHT22;49838;51.798;10.954;2024-01-30T14:16:27;17.80;38.50
64549;DHT22;49838;51.798;10.954;2024-01-30T14:18:55;17.70;38.30
64549;DHT22;49838;51.798;10.954;2024-01-30T14:21:22;17.80;38.30
64549;DHT22;49838;51.798;10.954;2024-01-30T14:23:49;17.70;38.20
64549;DHT22;49838;51.798;10.954;2024-01-30T14:26:18;17.80;38.50
64549;DHT22;49838;51.798;10.954;2024-01-30T14:28:47;17.70;38.20
64549;DHT22;49838;51.798;10.954;2024-01-30T14:31:14;17.70;38.20
64549;DHT22;49838;51.798;10.954;2024-01-30T14:33:42;17.70;38.10
64549;DHT22;49838;51.798;10.954;2024-01-30T14:36:10;17.70;38.00
64549;DHT22;49838;51.798;10.954;2024-01-30T14:38:37;17.70;37.90
64549;DHT22;49838;51.798;10.954;2024-01-30T14:41:04;17.80;38.00
64549;DHT22;49838;51.798;10.954;2024-01-30T14:43:33;17.70;37.80
64549;DHT22;49838;51.798;10.954;2024-01-30T14:46:00;17.80;37.80
64549;DHT22;49838;51.798;10.954;2024-01-30T14:48:27;17.70;37.90
64549;DHT22;49838;51.798;10.954;2024-01-30T14:50:56;17.70;37.80
64549;DHT22;49838;51.798;10.954;2024-01-30T14:53:23;17.70;37.90
64549;DHT22;49838;51.798;10.954;2024-01-30T14:55:50;17.70;37.90
64549;DHT22;49838;51.798;10.954;2024-01-30T14:58:18;17.70;37.80
64549;DHT22;49838;51.798;10.954;2024-01-30T15:00:46;17.60;37.60
64549;DHT22;49838;51.798;10.954;2024-01-30T15:03:14;17.70;37.70
64549;DHT22;49838;51.798;10.954;2024-01-30T15:05:41;17.60;37.70
64549;DHT22;49838;51.798;10.954;2024-01-30T15:08:08;17.60;37.70
64549;DHT22;49838;51.798;10.954;2024-01-30T15:10:36;17.60;37.60
64549;DHT22;49838;51.798;10.954;2024-01-30T15:13:03;17.60;37.60
64549;DHT22;49838;51.798;10.954;2024-01-30T15:15:31;17.60;37.60
64549;DHT22;49838;51.798;10.954;2024-01-30T15:17:59;17.50;37.50